Time;durP1;ratioP1;P1;durP2;ratioP2;P2;SDS_P1;SDS_P2;PMS_P1;PMS_P2;Temp;Humidity;BMP_temperature;BMP_pressure;BME280_temperature;BME280_humidity;BME280_pressure;Samples;Min_cycle;Max_cycle;Signal;HPM_P1;HPM_P2
2021/11/12 00:12:43;;;;;;;0.10;0.10;;;;;;;;;;4989389;28;20417;-78
2021/11/12 00:15:12;;;;;;;0.00;0.00;;;;;;;;;;4989509;28;20500;-78
2021/11/12 00:17:41;;;;;;;0.47;0.32;;;;;;;;;;4993903;28;20406;-78
2021/11/12 00:20:09;;;;;;;1.30;0.80;;;;;;;;;;4993951;28;20038;-78
2021/11/12 00:22:37;;;;;;;0.00;0.00;;;;;;;;;;4993876;28;20042;-78
2021/11/12 00:25:06;;;;;;;0.35;0.35;;;;;;;;;;4993693;28;20125;-78
2021/11/12 00:27:34;;;;;;;0.32;0.32;;;;;;;;;;4992624;28;20039;-77
2021/11/12 00:35:50;;;;;;;2.63;0.43;;;;;;;;;;4993591;28;20050;-78
2021/11/12 00:38:21;;;;;;;1.00;0.50;;;;;;;;;;5005896;28;20052;-78
2021/11/12 00:41:11;;;;;;;0.05;0.05;;;;;;;;;;4993474;28;20042;-78
2021/11/12 00:43:42;;;;;;;0.30;0.30;;;;;;;;;;4993666;28;20145;-78
2021/11/12 00:49:18;;;;;;;1.25;0.93;;;;;;;;;;4972137;28;20046;-78
2021/11/12 00:51:53;;;;;;;0.40;0.40;;;;;;;;;;4990033;28;20074;-77
2021/11/12 00:54:21;;;;;;;0.38;0.38;;;;;;;;;;4992874;28;20068;-77
2021/11/12 00:56:54;;;;;;;0.10;0.10;;;;;;;;;;4993676;28;20493;-78
2021/11/12 00:59:24;;;;;;;1.70;0.63;;;;;;;;;;5024068;28;22005;-77
2021/11/12 01:01:56;;;;;;;1.23;0.68;;;;;;;;;;5024114;28;20042;-77
2021/11/12 01:04:25;;;;;;;0.80;0.65;;;;;;;;;;4993567;28;20043;-78
2021/11/12 01:06:57;;;;;;;0.20;0.20;;;;;;;;;;4993266;28;20080;-78
2021/11/12 01:09:24;;;;;;;0.80;0.57;;;;;;;;;;4992465;28;20038;-78
2021/11/12 01:11:52;;;;;;;0.68;0.60;;;;;;;;;;4993309;28;20398;-78
2021/11/12 01:14:22;;;;;;;2.45;2.28;;;;;;;;;;4993169;28;20122;-78
2021/11/12 01:16:51;;;;;;;2.90;1.17;;;;;;;;;;4993157;28;20072;-78
2021/11/12 01:19:21;;;;;;;1.38;0.90;;;;;;;;;;4993259;28;20097;-77
2021/11/12 01:21:50;;;;;;;0.00;0.00;;;;;;;;;;5024565;28;20146;-78
2021/11/12 01:24:20;;;;;;;0.28;0.28;;;;;;;;;;4993102;28;20035;-77
2021/11/12 01:26:48;;;;;;;0.50;0.50;;;;;;;;;;4993047;28;20034;-78
2021/11/12 01:29:17;;;;;;;0.82;0.82;;;;;;;;;;5024388;28;20049;-78
2021/11/12 01:31:45;;;;;;;0.30;0.30;;;;;;;;;;4991799;28;20138;-78
2021/11/12 01:34:12;;;;;;;0.20;0.20;;;;;;;;;;4992929;28;20045;-78
2021/11/12 01:36:43;;;;;;;0.10;0.10;;;;;;;;;;4992159;28;20397;-78
2021/11/12 01:39:17;;;;;;;2.53;1.30;;;;;;;;;;5024370;28;20046;-79
2021/11/12 01:41:48;;;;;;;0.22;0.22;;;;;;;;;;4991591;28;20465;-77
2021/11/12 01:44:17;;;;;;;0.10;0.10;;;;;;;;;;4993031;28;20049;-77
2021/11/12 01:49:53;;;;;;;0.32;0.32;;;;;;;;;;4992987;28;20038;-77
2021/11/12 01:52:37;;;;;;;2.78;2.58;;;;;;;;;;4991624;28;20062;-77
2021/11/12 01:55:09;;;;;;;1.38;0.20;;;;;;;;;;4993016;28;20042;-76
2021/11/12 02:00:08;;;;;;;0.20;0.20;;;;;;;;;;5023969;28;20038;-77
2021/11/12 02:02:37;;;;;;;0.57;0.57;;;;;;;;;;5023834;28;20041;-77
2021/11/12 02:05:04;;;;;;;0.30;0.30;;;;;;;;;;5024265;28;20121;-77
2021/11/12 02:07:35;;;;;;;0.95;0.90;;;;;;;;;;4992418;28;20437;-77
2021/11/12 02:10:16;;;;;;;0.05;0.05;;;;;;;;;;5023865;28;20121;-76
2021/11/12 02:13:08;;;;;;;0.32;0.32;;;;;;;;;;5024253;28;20050;-76
2021/11/12 02:15:39;;;;;;;1.10;1.00;;;;;;;;;;5024062;28;20046;-76
2021/11/12 02:18:26;;;;;;;0.30;0.30;;;;;;;;;;4992521;28;20050;-77
2021/11/12 02:21:07;;;;;;;11.90;1.75;;;;;;;;;;4993873;28;20046;-77
2021/11/12 02:23:39;;;;;;;0.85;0.85;;;;;;;;;;5009114;28;20132;-76
2021/11/12 02:26:12;;;;;;;0.20;0.20;;;;;;;;;;5027543;28;20081;-76
2021/11/12 02:28:44;;;;;;;0.20;0.20;;;;;;;;;;4994823;28;20081;-76
2021/11/12 02:31:12;;;;;;;0.28;0.28;;;;;;;;;;4995959;28;20046;-77
2021/11/12 02:33:39;;;;;;;2.28;1.92;;;;;;;;;;4996027;28;20560;-76
2021/11/12 02:36:13;;;;;;;1.10;0.77;;;;;;;;;;4995522;28;20039;-76
2021/11/12 02:38:51;;;;;;;0.20;0.20;;;;;;;;;;4996121;28;20572;-77
2021/11/12 02:41:20;;;;;;;0.38;0.38;;;;;;;;;;4995740;28;20118;-75
2021/11/12 02:43:49;;;;;;;1.38;0.77;;;;;;;;;;4995684;28;20038;-75
2021/11/12 02:46:19;;;;;;;1.38;1.27;;;;;;;;;;5027076;28;20047;-75
2021/11/12 02:48:47;;;;;;;0.00;0.00;;;;;;;;;;5027138;28;20077;-76
2021/11/12 02:51:20;;;;;;;0.15;0.15;;;;;;;;;;4995265;28;20129;-76
2021/11/12 02:53:49;;;;;;;0.03;0.03;;;;;;;;;;4995450;28;20475;-75
2021/11/12 02:56:27;;;;;;;0.00;0.00;;;;;;;;;;4995682;28;20105;-75
2021/11/12 02:59:00;;;;;;;0.50;0.40;;;;;;;;;;4994452;28;20057;-77
2021/11/12 03:01:28;;;;;;;0.13;0.13;;;;;;;;;;5026909;28;20039;-80
2021/11/12 03:03:57;;;;;;;0.00;0.00;;;;;;;;;;4995352;28;20051;-78
2021/11/12 03:06:24;;;;;;;0.65;0.65;;;;;;;;;;4995616;28;20048;-78
2021/11/12 03:08:52;;;;;;;0.45;0.45;;;;;;;;;;4995260;28;20054;-78
2021/11/12 03:11:20;;;;;;;0.10;0.10;;;;;;;;;;4995431;28;20039;-78
2021/11/12 03:13:49;;;;;;;0.28;0.20;;;;;;;;;;5010027;28;20046;-78
2021/11/12 03:16:20;;;;;;;0.05;0.05;;;;;;;;;;5025928;28;20043;-78
2021/11/12 03:18:49;;;;;;;0.65;0.65;;;;;;;;;;4994981;28;20058;-77
2021/11/12 03:21:22;;;;;;;0.50;0.35;;;;;;;;;;4995304;28;20044;-78
2021/11/12 03:23:58;;;;;;;0.00;0.00;;;;;;;;;;4995098;28;20054;-78
2021/11/12 04:41:42;;;;;;;1.15;0.63;;;;;;;;;;4952958;29;20087;-78
2021/11/12 04:50:18;;;;;;;0.20;0.20;;;;;;;;;;4919328;29;20087;-78
2021/11/12 05:12:44;;;;;;;0.10;0.10;;;;;;;;;;4974277;28;20070;-77
2021/11/12 05:56:04;;;;;;;4.15;1.63;;;;;;;;;;4976883;28;20070;-77
2021/11/12 05:58:31;;;;;;;2.10;1.85;;;;;;;;;;4976759;28;20054;-76
2021/11/12 06:01:01;;;;;;;8.10;2.58;;;;;;;;;;4977078;28;20039;-74
2021/11/12 06:03:28;;;;;;;6.50;1.55;;;;;;;;;;4975927;28;20054;-75
2021/11/12 06:05:56;;;;;;;4.10;2.33;;;;;;;;;;4976660;28;20039;-77
2021/11/12 06:08:24;;;;;;;10.27;2.47;;;;;;;;;;4976935;28;20046;-76
2021/11/12 06:10:52;;;;;;;10.45;2.40;;;;;;;;;;4976947;28;20051;-74
2021/11/12 06:13:21;;;;;;;8.13;3.05;;;;;;;;;;4975384;28;20042;-73
2021/11/12 06:15:49;;;;;;;21.45;6.25;;;;;;;;;;4976550;28;20046;-76
2021/11/12 06:18:17;;;;;;;19.70;4.47;;;;;;;;;;4976601;28;20055;-75
2021/11/12 06:20:45;;;;;;;16.25;4.78;;;;;;;;;;4976499;28;20556;-73
2021/11/12 06:23:12;;;;;;;27.15;6.15;;;;;;;;;;4975591;28;20055;-77
2021/11/12 06:25:40;;;;;;;22.67;5.53;;;;;;;;;;4976601;28;20054;-75
2021/11/12 06:28:07;;;;;;;25.58;6.05;;;;;;;;;;4975205;28;20043;-73
2021/11/12 06:30:35;;;;;;;25.20;6.63;;;;;;;;;;4976600;28;20405;-75
2021/11/12 06:33:03;;;;;;;27.98;6.22;;;;;;;;;;4976297;28;20039;-75
2021/11/12 06:35:31;;;;;;;29.25;6.68;;;;;;;;;;4976433;28;20089;-76
2021/11/12 06:37:58;;;;;;;33.28;7.22;;;;;;;;;;4976618;28;20049;-76
2021/11/12 06:40:26;;;;;;;31.50;6.75;;;;;;;;;;4976481;28;20375;-74
2021/11/12 06:51:04;;;;;;;34.20;7.55;;;;;;;;;;4976105;28;20050;-76
2021/11/12 06:53:32;;;;;;;25.08;7.25;;;;;;;;;;4975263;28;20573;-76
2021/11/12 06:56:01;;;;;;;31.55;7.63;;;;;;;;;;4975814;28;20129;-76
2021/11/12 06:58:30;;;;;;;31.30;8.27;;;;;;;;;;4974782;28;20513;-72
2021/11/12 07:00:58;;;;;;;27.50;7.55;;;;;;;;;;4976085;28;20410;-75
2021/11/12 07:03:26;;;;;;;32.63;7.90;;;;;;;;;;4976332;28;20043;-76
2021/11/12 07:05:54;;;;;;;35.78;8.57;;;;;;;;;;4989757;28;20041;-75
2021/11/12 07:08:21;;;;;;;37.78;8.43;;;;;;;;;;4975875;28;20039;-76
2021/11/12 07:10:52;;;;;;;36.65;9.20;;;;;;;;;;4975424;28;20034;-76
2021/11/12 07:13:29;;;;;;;31.50;7.93;;;;;;;;;;4975648;28;20129;-74
2021/11/12 07:15:57;;;;;;;35.40;8.15;;;;;;;;;;4989569;28;20042;-75
2021/11/12 07:18:28;;;;;;;37.15;7.43;;;;;;;;;;4975254;28;20057;-75
2021/11/12 07:20:56;;;;;;;33.42;8.40;;;;;;;;;;4975074;28;20455;-73
2021/11/12 07:23:24;;;;;;;36.13;8.98;;;;;;;;;;4990485;28;20142;-76
2021/11/12 07:25:53;;;;;;;37.50;7.95;;;;;;;;;;4973789;28;20205;-75
2021/11/12 07:28:23;;;;;;;23.27;6.05;;;;;;;;;;4975618;28;20106;-76
2021/11/12 07:30:53;;;;;;;30.90;5.72;;;;;;;;;;4989939;28;20050;-75
2021/11/12 07:33:21;;;;;;;25.60;5.78;;;;;;;;;;4975133;28;20349;-73
2021/11/12 07:35:56;;;;;;;22.95;5.53;;;;;;;;;;4990112;28;20082;-75
2021/11/12 07:38:30;;;;;;;18.13;4.90;;;;;;;;;;4974958;28;20120;-75
2021/11/12 07:46:20;;;;;;;20.52;4.50;;;;;;;;;;4975038;28;20501;-75
2021/11/12 07:48:49;;;;;;;13.88;4.00;;;;;;;;;;4974875;28;20047;-73
2021/11/12 07:51:17;;;;;;;20.92;5.20;;;;;;;;;;4974927;28;20062;-75
2021/11/12 07:53:46;;;;;;;24.65;5.22;;;;;;;;;;4973425;28;20134;-74
2021/11/12 07:56:14;;;;;;;22.55;5.78;;;;;;;;;;4974646;28;20131;-75
2021/11/12 07:58:41;;;;;;;22.27;5.32;;;;;;;;;;4974751;28;20047;-74
2021/11/12 08:01:09;;;;;;;21.02;5.00;;;;;;;;;;4979763;28;20406;-76
2021/11/12 08:03:37;;;;;;;19.75;5.28;;;;;;;;;;4991555;28;20383;-75
2021/11/12 08:06:07;;;;;;;16.80;4.93;;;;;;;;;;4991228;28;20053;-76
2021/11/12 08:08:36;;;;;;;16.55;4.80;;;;;;;;;;4990738;28;20096;-73
2021/11/12 08:14:10;;;;;;;22.10;5.35;;;;;;;;;;4982635;28;20410;-75
2021/11/12 08:19:43;;;;;;;18.58;5.20;;;;;;;;;;4969981;28;20054;-77
2021/11/12 08:22:19;;;;;;;13.95;4.60;;;;;;;;;;4971762;28;20129;-72
2021/11/12 08:25:05;;;;;;;16.17;4.65;;;;;;;;;;4968208;28;20414;-78
2021/11/12 08:30:27;;;;;;;19.75;4.90;;;;;;;;;;4972038;28;20042;-80
2021/11/12 08:33:19;;;;;;;25.25;4.78;;;;;;;;;;4972036;28;20069;-76
2021/11/12 08:36:32;;;;;;;14.20;4.20;;;;;;;;;;4950818;28;20051;-75
2021/11/12 08:41:42;;;;;;;16.70;4.30;;;;;;;;;;4951893;29;20054;-74
2021/11/12 08:46:55;;;;;;;11.48;3.55;;;;;;;;;;4950510;28;20098;-75
2021/11/12 08:49:32;;;;;;;9.93;3.20;;;;;;;;;;4966489;28;20055;-75
2021/11/12 08:52:00;;;;;;;14.88;4.07;;;;;;;;;;4951342;29;20122;-73
2021/11/12 08:54:31;;;;;;;12.95;3.72;;;;;;;;;;4951707;29;20043;-74
2021/11/12 08:57:00;;;;;;;12.90;3.63;;;;;;;;;;4952050;29;20042;-77
2021/11/12 08:59:28;;;;;;;11.57;3.90;;;;;;;;;;4951649;28;20047;-73
2021/11/12 09:01:57;;;;;;;16.00;4.53;;;;;;;;;;4951364;28;20058;-76
2021/11/12 09:04:25;;;;;;;11.85;3.88;;;;;;;;;;4951557;28;20043;-78
2021/11/12 09:06:53;;;;;;;11.10;3.58;;;;;;;;;;4950689;28;20058;-75
2021/11/12 09:09:20;;;;;;;9.48;3.72;;;;;;;;;;4952403;29;20039;-77
2021/11/12 09:11:49;;;;;;;14.45;3.85;;;;;;;;;;4951955;28;20059;-80
2021/11/12 09:14:22;;;;;;;14.48;3.92;;;;;;;;;;4949683;28;20440;-77
2021/11/12 09:16:49;;;;;;;11.90;3.75;;;;;;;;;;4966434;28;20055;-77
2021/11/12 09:19:17;;;;;;;13.48;4.00;;;;;;;;;;4951647;29;20558;-80
2021/11/12 09:21:46;;;;;;;11.40;4.25;;;;;;;;;;4949897;28;20517;-74
2021/11/12 09:24:14;;;;;;;13.45;4.05;;;;;;;;;;4951000;29;20526;-75
2021/11/12 09:26:42;;;;;;;15.27;3.45;;;;;;;;;;4950698;28;20399;-75
2021/11/12 09:29:10;;;;;;;16.73;4.40;;;;;;;;;;4951488;28;20396;-79
2021/11/12 09:31:38;;;;;;;14.32;4.45;;;;;;;;;;4954361;28;20062;-75
2021/11/12 09:34:07;;;;;;;11.20;3.70;;;;;;;;;;4953887;28;20057;-79
2021/11/12 09:36:34;;;;;;;14.55;4.68;;;;;;;;;;4955033;29;20043;-73
2021/11/12 09:39:03;;;;;;;15.90;4.60;;;;;;;;;;4955396;29;20130;-75
2021/11/12 09:41:31;;;;;;;13.52;4.25;;;;;;;;;;4953787;28;20095;-74
2021/11/12 09:44:03;;;;;;;13.60;4.35;;;;;;;;;;4954156;29;20047;-76
2021/11/12 09:46:32;;;;;;;13.48;4.32;;;;;;;;;;4954222;28;20187;-75
2021/11/12 09:49:03;;;;;;;10.00;3.90;;;;;;;;;;4954120;29;20043;-73
2021/11/12 09:51:31;;;;;;;15.82;4.15;;;;;;;;;;4951171;28;20039;-80
2021/11/12 09:54:00;;;;;;;8.52;3.30;;;;;;;;;;4945420;29;20046;-78
2021/11/12 09:56:31;;;;;;;13.30;4.10;;;;;;;;;;4959534;28;20079;-73
2021/11/12 09:58:58;;;;;;;12.98;3.50;;;;;;;;;;4960652;28;20055;-74
2021/11/12 10:01:28;;;;;;;12.80;3.55;;;;;;;;;;4939081;29;20043;-73
2021/11/12 10:04:04;;;;;;;8.90;3.30;;;;;;;;;;4945157;29;20423;-76
2021/11/12 10:06:36;;;;;;;7.90;3.28;;;;;;;;;;4947015;29;20146;-74
2021/11/12 10:09:04;;;;;;;13.23;3.23;;;;;;;;;;4943313;28;20123;-74
2021/11/12 10:11:33;;;;;;;9.73;3.00;;;;;;;;;;4942141;29;20040;-72
2021/11/12 10:14:52;;;;;;;14.18;3.70;;;;;;;;;;4947555;29;20040;-75
2021/11/12 10:17:21;;;;;;;9.63;3.13;;;;;;;;;;4945108;29;20047;-73
2021/11/12 10:19:52;;;;;;;10.18;3.20;;;;;;;;;;4944110;29;20067;-79
2021/11/12 10:22:24;;;;;;;8.52;3.22;;;;;;;;;;4960863;28;20158;-74
2021/11/12 10:24:53;;;;;;;10.60;3.63;;;;;;;;;;4954630;28;20039;-80
2021/11/12 10:27:23;;;;;;;7.93;3.97;;;;;;;;;;4959653;28;20051;-75
2021/11/12 10:29:52;;;;;;;10.93;3.40;;;;;;;;;;4958263;28;20448;-79
2021/11/12 10:32:22;;;;;;;9.35;3.53;;;;;;;;;;4944358;29;20059;-73
2021/11/12 10:34:51;;;;;;;8.27;3.30;;;;;;;;;;4950724;28;20125;-73
2021/11/12 10:37:23;;;;;;;13.50;3.60;;;;;;;;;;4967053;28;20503;-74
2021/11/12 10:40:01;;;;;;;8.40;3.70;;;;;;;;;;4951897;28;20048;-76
2021/11/12 10:42:30;;;;;;;11.77;4.07;;;;;;;;;;4933337;29;20044;-72
2021/11/12 10:44:59;;;;;;;11.82;3.47;;;;;;;;;;4948667;28;20065;-75
2021/11/12 10:47:29;;;;;;;9.45;3.17;;;;;;;;;;4947086;29;20071;-81
2021/11/12 10:49:59;;;;;;;17.17;4.32;;;;;;;;;;4949135;28;20039;-78
2021/11/12 10:52:27;;;;;;;11.20;3.95;;;;;;;;;;4935417;29;20474;-81
2021/11/12 10:55:04;;;;;;;14.85;4.30;;;;;;;;;;4949998;28;20058;-80
2021/11/12 10:57:34;;;;;;;20.67;3.80;;;;;;;;;;4935009;29;20127;-77
2021/11/12 11:00:05;;;;;;;17.92;3.97;;;;;;;;;;4934701;29;20201;-73
2021/11/12 11:02:52;;;;;;;7.23;3.30;;;;;;;;;;4946415;28;20079;-74
2021/11/12 11:05:24;;;;;;;11.65;3.45;;;;;;;;;;4965991;28;20070;-77
2021/11/12 11:07:55;;;;;;;11.20;2.85;;;;;;;;;;4960786;28;20043;-80
2021/11/12 11:10:30;;;;;;;11.57;3.35;;;;;;;;;;4951426;29;20059;-76
2021/11/12 11:13:21;;;;;;;10.63;3.35;;;;;;;;;;4967752;28;20087;-74
2021/11/12 11:15:53;;;;;;;10.45;3.17;;;;;;;;;;4965359;28;20146;-79
2021/11/12 11:18:24;;;;;;;9.07;3.33;;;;;;;;;;4967268;28;20106;-73
2021/11/12 11:20:59;;;;;;;12.25;3.55;;;;;;;;;;4968236;28;20054;-79
2021/11/12 11:23:46;;;;;;;12.82;3.85;;;;;;;;;;4971265;28;20113;-74
2021/11/12 11:26:15;;;;;;;13.63;3.58;;;;;;;;;;4967975;28;20050;-74
2021/11/12 11:28:44;;;;;;;14.35;3.72;;;;;;;;;;4971769;28;20049;-76
2021/11/12 11:31:15;;;;;;;10.98;4.32;;;;;;;;;;4986236;28;20133;-76
2021/11/12 11:33:44;;;;;;;16.05;4.45;;;;;;;;;;4986376;28;20480;-76
2021/11/12 11:36:13;;;;;;;11.15;3.70;;;;;;;;;;4972077;28;20050;-73
2021/11/12 11:38:41;;;;;;;14.63;3.58;;;;;;;;;;4971991;28;20476;-76
2021/11/12 11:41:10;;;;;;;12.48;4.20;;;;;;;;;;4971567;28;20065;-74
2021/11/12 11:43:38;;;;;;;15.55;4.22;;;;;;;;;;4986360;28;20049;-74
2021/11/12 11:46:08;;;;;;;9.45;3.67;;;;;;;;;;4970222;28;20047;-75
2021/11/12 11:48:38;;;;;;;9.82;3.50;;;;;;;;;;4971549;28;20502;-74
2021/11/12 11:51:25;;;;;;;9.05;3.78;;;;;;;;;;4971648;28;20039;-76
2021/11/12 11:53:54;;;;;;;10.70;3.63;;;;;;;;;;4985664;28;20174;-74
2021/11/12 11:56:23;;;;;;;13.82;3.58;;;;;;;;;;4959836;28;20055;-79
2021/11/12 11:58:52;;;;;;;11.88;3.53;;;;;;;;;;4967174;28;20126;-74
2021/11/12 12:01:20;;;;;;;8.90;3.67;;;;;;;;;;4951907;29;20282;-74
2021/11/12 12:03:49;;;;;;;12.85;3.47;;;;;;;;;;4966499;28;20043;-78
2021/11/12 12:06:20;;;;;;;12.52;3.80;;;;;;;;;;4951802;29;20040;-74
2021/11/12 12:08:52;;;;;;;13.60;4.43;;;;;;;;;;4966841;28;20509;-79
2021/11/12 12:11:21;;;;;;;9.73;3.50;;;;;;;;;;4951604;28;20054;-78
2021/11/12 12:14:08;;;;;;;9.57;3.10;;;;;;;;;;4966492;28;20051;-75
2021/11/12 12:16:39;;;;;;;9.27;3.47;;;;;;;;;;4962878;28;20087;-76
2021/11/12 12:19:08;;;;;;;14.02;3.70;;;;;;;;;;4963319;28;20075;-73
2021/11/12 12:21:50;;;;;;;10.75;3.53;;;;;;;;;;4932625;29;20055;-76
2021/11/12 12:35:44;;;;;;;15.18;3.47;;;;;;;;;;4946328;29;20047;-78
2021/11/12 12:42:35;;;;;;;13.75;3.53;;;;;;;;;;4942011;29;20111;-74
2021/11/12 13:25:48;;;;;;;17.35;4.75;;;;;;;;;;4968783;28;20118;-76
2021/11/12 13:28:25;;;;;;;15.80;5.05;;;;;;;;;;4953928;29;20071;-72
2021/11/12 13:30:54;;;;;;;18.02;5.15;;;;;;;;;;4953481;29;20118;-77
2021/11/12 13:33:40;;;;;;;16.17;4.68;;;;;;;;;;4952482;28;20043;-73
2021/11/12 13:36:19;;;;;;;17.23;3.95;;;;;;;;;;4954041;29;20051;-74
2021/11/12 13:38:49;;;;;;;16.05;3.92;;;;;;;;;;4946541;28;20496;-73
2021/11/12 13:41:17;;;;;;;13.57;4.70;;;;;;;;;;4948077;28;20146;-75
2021/11/12 13:43:48;;;;;;;23.63;4.63;;;;;;;;;;4952122;28;20063;-74
2021/11/12 13:46:18;;;;;;;17.50;4.32;;;;;;;;;;4952228;28;20043;-75
2021/11/12 13:48:47;;;;;;;12.88;4.45;;;;;;;;;;4966766;28;20414;-74
2021/11/12 13:51:17;;;;;;;13.75;4.20;;;;;;;;;;4951946;28;20054;-74
2021/11/12 13:53:47;;;;;;;11.73;3.88;;;;;;;;;;4950432;28;20057;-79
2021/11/12 13:56:15;;;;;;;15.43;4.28;;;;;;;;;;4950932;29;20075;-74
2021/11/12 13:58:43;;;;;;;15.10;4.95;;;;;;;;;;4952187;29;20070;-74
2021/11/12 14:01:18;;;;;;;14.32;4.25;;;;;;;;;;4966925;28;20047;-74
2021/11/12 14:03:47;;;;;;;13.55;3.88;;;;;;;;;;4965827;28;20039;-75
2021/11/12 14:06:15;;;;;;;15.65;4.40;;;;;;;;;;4967063;28;20031;-75
2021/11/12 14:08:50;;;;;;;13.13;4.22;;;;;;;;;;4966547;28;20059;-74
2021/11/12 14:11:18;;;;;;;17.48;4.45;;;;;;;;;;4950369;29;20098;-74
2021/11/12 14:13:47;;;;;;;13.50;3.67;;;;;;;;;;4951946;29;20418;-74
2021/11/12 14:16:26;;;;;;;10.10;3.03;;;;;;;;;;4953880;28;20043;-74
2021/11/12 14:21:39;;;;;;;11.82;3.42;;;;;;;;;;4954201;29;20134;-73
2021/11/12 14:40:55;;;;;;;11.18;3.10;;;;;;;;;;4956348;29;20043;-75
2021/11/12 14:43:39;;;;;;;12.27;3.50;;;;;;;;;;4956463;28;20040;-75
2021/11/12 14:46:12;;;;;;;13.75;3.30;;;;;;;;;;4956682;28;20041;-75
2021/11/12 14:48:53;;;;;;;12.40;3.05;;;;;;;;;;4971085;28;20039;-75
2021/11/12 14:51:25;;;;;;;9.13;3.60;;;;;;;;;;4969491;28;20058;-80
2021/11/12 14:54:03;;;;;;;9.52;3.22;;;;;;;;;;4955974;28;20130;-79
2021/11/12 14:56:31;;;;;;;16.40;3.55;;;;;;;;;;4956342;28;20122;-74
2021/11/12 14:59:05;;;;;;;12.38;3.38;;;;;;;;;;4956234;28;20047;-73
2021/11/12 15:01:35;;;;;;;7.90;2.88;;;;;;;;;;4954781;28;20047;-75
2021/11/12 15:04:03;;;;;;;15.38;4.15;;;;;;;;;;4956235;29;20039;-74
2021/11/12 15:06:32;;;;;;;10.00;3.40;;;;;;;;;;4955889;29;20114;-74
2021/11/12 15:09:18;;;;;;;12.73;3.78;;;;;;;;;;4953280;28;20106;-78
2021/11/12 15:11:49;;;;;;;15.07;3.67;;;;;;;;;;4958055;28;20058;-73
2021/11/12 15:14:33;;;;;;;12.00;4.50;;;;;;;;;;4956768;28;20054;-75
2021/11/12 15:17:18;;;;;;;15.23;3.80;;;;;;;;;;4955669;29;20563;-74
2021/11/12 15:19:47;;;;;;;12.10;3.67;;;;;;;;;;4971075;28;20410;-77
2021/11/12 15:27:50;;;;;;;10.98;3.30;;;;;;;;;;4941330;28;20063;-75
2021/11/12 15:30:31;;;;;;;9.10;3.13;;;;;;;;;;4950932;29;20119;-73
2021/11/12 15:33:03;;;;;;;11.00;3.35;;;;;;;;;;4936391;29;20067;-73
2021/11/12 15:35:32;;;;;;;9.05;3.30;;;;;;;;;;4951059;29;20123;-73
2021/11/12 15:38:06;;;;;;;9.63;2.80;;;;;;;;;;4935948;29;20036;-75
2021/11/12 15:40:40;;;;;;;8.43;2.50;;;;;;;;;;4935900;29;20147;-76
2021/11/12 15:48:21;;;;;;;8.15;2.78;;;;;;;;;;4955149;29;20043;-75
2021/11/12 16:25:20;;;;;;;7.82;2.97;;;;;;;;;;4949891;28;20511;-72
2021/11/12 16:27:50;;;;;;;6.65;2.65;;;;;;;;;;4934104;29;20471;-75
2021/11/12 16:30:20;;;;;;;5.97;2.58;;;;;;;;;;4918355;29;20070;-72
2021/11/12 16:32:56;;;;;;;8.30;3.22;;;;;;;;;;4935515;29;20050;-79
2021/11/12 16:35:25;;;;;;;6.28;3.00;;;;;;;;;;4935214;29;20555;-73
2021/11/12 16:38:01;;;;;;;7.25;2.78;;;;;;;;;;4933919;29;20111;-76
2021/11/12 16:40:35;;;;;;;5.80;3.10;;;;;;;;;;4956540;28;20504;-78
2021/11/12 16:50:52;;;;;;;9.27;3.00;;;;;;;;;;4954341;29;20067;-74
2021/11/12 17:01:41;;;;;;;6.20;3.15;;;;;;;;;;4934819;29;20062;-75
2021/11/12 17:10:43;;;;;;;10.32;3.50;;;;;;;;;;4933317;29;19930;-72
2021/11/12 17:47:50;;;;;;;16.27;5.78;;;;;;;;;;4953518;28;20118;-72
2021/11/12 17:50:32;;;;;;;12.93;5.60;;;;;;;;;;4954563;28;20399;-76
2021/11/12 18:18:08;;;;;;;16.05;6.22;;;;;;;;;;4956516;28;20051;-72
2021/11/12 21:48:19;;;;;;;20.35;8.77;;;;;;;;;;5013866;28;20524;-80
2021/11/12 21:50:52;;;;;;;21.33;9.23;;;;;;;;;;5012793;28;20053;-73
2021/11/12 21:53:22;;;;;;;;;;;;;;;;;;5013199;28;20804;-79
2021/11/12 21:55:51;;;;;;;17.33;7.70;;;;;;;;;;5013498;28;19921;-75
2021/11/12 21:58:19;;;;;;;17.00;7.00;;;;;;;;;;5012326;28;20046;-75
2021/11/12 22:00:48;;;;;;;19.85;8.00;;;;;;;;;;5013748;28;20132;-74
2021/11/12 22:03:16;;;;;;;20.75;7.70;;;;;;;;;;5012571;28;20057;-80
2021/11/12 22:05:44;;;;;;;21.38;7.93;;;;;;;;;;5014269;28;20454;-74
2021/11/12 22:08:12;;;;;;;20.90;7.70;;;;;;;;;;5013200;28;20064;-75
2021/11/12 22:10:40;;;;;;;22.42;7.70;;;;;;;;;;5012879;28;20038;-72
2021/11/12 22:13:08;;;;;;;22.95;8.20;;;;;;;;;;4996675;28;20065;-72
2021/11/12 22:15:35;;;;;;;18.02;7.63;;;;;;;;;;5014103;28;20061;-74
2021/11/12 22:18:03;;;;;;;20.13;7.70;;;;;;;;;;5013402;28;20050;-75
2021/11/12 22:20:31;;;;;;;24.27;7.95;;;;;;;;;;5011600;28;20048;-74
2021/11/12 22:22:59;;;;;;;22.58;7.35;;;;;;;;;;5010839;28;20345;-75
2021/11/12 22:25:26;;;;;;;21.33;7.68;;;;;;;;;;5013075;28;20497;-72
2021/11/12 22:27:53;;;;;;;16.27;7.15;;;;;;;;;;5012394;28;20046;-74
2021/11/12 22:30:21;;;;;;;16.27;6.93;;;;;;;;;;5012622;28;20055;-75
2021/11/12 22:32:50;;;;;;;16.20;6.75;;;;;;;;;;5011534;28;20053;-74
2021/11/12 22:35:20;;;;;;;14.55;6.20;;;;;;;;;;5013228;28;20042;-72
2021/11/12 22:37:48;;;;;;;13.75;6.63;;;;;;;;;;5012052;28;20064;-75
2021/11/12 22:40:16;;;;;;;13.38;6.53;;;;;;;;;;5013111;28;20045;-80
2021/11/12 22:42:44;;;;;;;14.07;6.25;;;;;;;;;;5013343;28;20052;-72
2021/11/12 22:45:11;;;;;;;11.27;5.72;;;;;;;;;;5011393;28;20596;-72
2021/11/12 22:47:39;;;;;;;11.82;5.63;;;;;;;;;;5013448;28;20414;-79
2021/11/12 22:50:07;;;;;;;11.45;6.03;;;;;;;;;;5011680;28;20072;-75
2021/11/12 22:52:39;;;;;;;14.80;6.45;;;;;;;;;;5015555;28;20076;-79
2021/11/12 22:55:09;;;;;;;17.02;7.05;;;;;;;;;;5015371;28;20124;-74
2021/11/12 22:57:36;;;;;;;14.50;6.50;;;;;;;;;;5015674;28;20042;-79
2021/11/12 23:00:15;;;;;;;19.10;7.07;;;;;;;;;;4997922;28;20046;-74
2021/11/12 23:02:42;;;;;;;15.20;6.75;;;;;;;;;;5014108;28;20061;-75
2021/11/12 23:05:10;;;;;;;14.38;6.50;;;;;;;;;;5015462;28;20041;-75
2021/11/12 23:07:39;;;;;;;16.95;7.00;;;;;;;;;;5013797;28;20436;-79
2021/11/12 23:10:07;;;;;;;20.60;7.15;;;;;;;;;;5015217;28;20153;-74
2021/11/12 23:12:35;;;;;;;15.10;7.30;;;;;;;;;;5015507;28;20052;-72
2021/11/12 23:15:03;;;;;;;12.60;6.65;;;;;;;;;;5015153;28;20034;-74
2021/11/12 23:17:30;;;;;;;15.65;6.72;;;;;;;;;;5014803;28;20046;-79
2021/11/12 23:19:58;;;;;;;12.35;6.20;;;;;;;;;;5015276;28;20084;-72
2021/11/12 23:22:27;;;;;;;15.35;6.47;;;;;;;;;;5013117;28;20042;-72
2021/11/12 23:24:55;;;;;;;9.60;5.63;;;;;;;;;;5014816;28;20038;-72
2021/11/12 23:27:42;;;;;;;16.52;5.50;;;;;;;;;;5013836;28;20444;-74
2021/11/12 23:30:10;;;;;;;15.18;6.90;;;;;;;;;;5015111;28;20516;-72
2021/11/12 23:32:38;;;;;;;7.65;4.78;;;;;;;;;;5014937;28;20209;-71
2021/11/12 23:35:07;;;;;;;11.25;5.13;;;;;;;;;;5013802;28;20492;-74
2021/11/12 23:37:34;;;;;;;10.00;4.35;;;;;;;;;;5013313;28;20041;-74
2021/11/12 23:40:02;;;;;;;12.43;5.10;;;;;;;;;;5015343;28;20045;-75
2021/11/12 23:42:30;;;;;;;11.27;4.38;;;;;;;;;;5013406;28;20061;-72
2021/11/12 23:44:57;;;;;;;13.13;5.18;;;;;;;;;;5014490;28;20121;-72
2021/11/12 23:47:25;;;;;;;10.45;4.80;;;;;;;;;;5014641;28;20049;-75
2021/11/12 23:49:53;;;;;;;13.88;4.85;;;;;;;;;;5012758;28;20113;-75
2021/11/12 23:52:21;;;;;;;8.05;4.25;;;;;;;;;;5013940;28;20045;-79
2021/11/12 23:54:48;;;;;;;14.90;4.68;;;;;;;;;;5014464;28;20036;-72
2021/11/12 23:57:16;;;;;;;10.02;4.97;;;;;;;;;;4997172;28;20140;-74
2021/11/12 23:59:45;;;;;;;13.07;4.57;;;;;;;;;;5013578;28;20557;-73
